Portada
METAR-TAF:

METAR-TAF

Aeropuertos :

Badajoz, España

Aeropuerto de Badajoz

latitud: 38-53N, longitud: 006-49W, altitud: 185 m

Observación

El informe se hizo hace 7 horas y 13 minutos, a las 19:00 UTC
Viento 13 kt del oeste-noroeste, variando entre oeste-suroeste y noroeste
Temperatura 20°C
Humedad 49%
Presión 1010 hPa
Visibilidad 10 km o más
sin nubes por debajo de 1500 m y sin presencia de cumulonimbus.

METAR: LEBZ 251900Z 29013KT 250V320 CAVOK 20/09 Q1010

Hora: 04:13 (02:13 UTC)

Pronóstico

El informe se hizo hace 3 horas y 13 minutos, a las 23:00 UTC
Pronóstico válido del 26 a las 00 UTC al 26 a las 24 UTC
Viento 9 kt del oeste
Visibilidad 10 km o más
Nubes dispersas a una altura de 3000 ft
Probabilidad 30% :
Temporalmente
del 26 a las 04 UTC al 26 a las 08 UTC
Visibilidad: 3000 m
Cielo nuboso a una altura de 1400 ft
neblina

TAF: LEBZ 252300Z 2600/2624 27009KT 9999 SCT030 TX23/2615Z TN09/2606Z PROB30 TEMPO 2604/2608 3000 BR BKN014

Observaciones y pronósticos meteorológicos de más de 4000 aeropuertos (mensajes METAR y TAF).

Los puntos amarillos y rojos representan las estaciones disponibles.

Ponga el ratón en el punto deseado para ver el nombre de la estación.

Haga clic para ver las observaciones y los pronósticos meteorológicos.

Para cambiar el mapa : haga clic en los botones verdes con una cruz de color negro para hacer un zoom, en el botón verde con un guión para alejar o en las flechas verdes para mapas adyacentes.


METAR-TAF: